Time,TemperatureF,DewpointF,PressureIn,WindDirection,WindDirectionDegrees,WindSpeedMPH,WindSpeedGustMPH,Humidity,HourlyPrecipIn,Conditions,Clouds,dailyrainin,SoftwareType,DateUTC
2013-12-05 00:52:00,43.0,42.0,29.88,West,275,12.0,21.0,99,-99.99,,,-99.99,,2013-12-05 05:52:00,
2013-12-05 01:12:00,43.0,42.0,29.88,West,280,14.0,23.0,99,-99.99,,,-99.99,,2013-12-05 06:12:00,
2013-12-05 04:22:00,43.0,38.0,29.88,North,0,10.0,32.0,84,-99.99,,,-99.99,,2013-12-05 09:22:00,
2013-12-05 04:43:00,42.0,38.0,29.88,North,0,14.0,28.0,86,-99.99,,,-99.99,,2013-12-05 09:43:00,
2013-12-05 05:23:00,40.0,35.0,29.88,NNE,20,11.0,29.0,83,-99.99,,,-99.99,,2013-12-05 10:23:00,
2013-12-05 06:22:00,39.0,35.0,29.88,North,0,11.0,27.0,85,-99.99,,,-99.99,,2013-12-05 11:22:00,
2013-12-05 07:22:00,37.0,32.0,29.88,North,5,13.0,31.0,81,-99.99,,,-99.99,,2013-12-05 12:22:00,
2013-12-05 07:52:00,36.0,31.0,29.88,North,5,16.0,34.0,80,-99.99,,,-99.99,,2013-12-05 12:52:00,
2013-12-05 08:22:00,36.0,30.0,29.88,North,350,13.0,29.0,79,-99.99,,,-99.99,,2013-12-05 13:22:00,
2013-12-05 09:22:00,36.0,28.0,29.88,NNE,30,16.0,31.0,71,-99.99,,,-99.99,,2013-12-05 14:22:00,
2013-12-05 10:22:00,35.0,26.0,29.88,NNE,20,16.0,32.0,68,-99.99,,,-99.99,,2013-12-05 15:22:00,
2013-12-05 10:43:00,35.0,25.0,29.88,NNE,25,19.0,39.0,67,-99.99,,,-99.99,,2013-12-05 15:43:00,
2013-12-05 10:54:00,35.0,25.0,29.88,NNE,25,16.0,35.0,67,-99.99,,,-99.99,,2013-12-05 15:54:00,
2013-12-05 11:23:00,34.0,23.0,29.88,NNE,15,15.0,30.0,64,-99.99,,,-99.99,,2013-12-05 16:23:00,
2013-12-05 12:23:00,31.0,22.0,29.88,NNE,20,13.0,27.0,67,-99.99,,,-99.99,,2013-12-05 17:23:00,
2013-12-05 12:42:00,31.0,21.0,29.88,NNE,15,15.0,30.0,66,-99.99,,,-99.99,,2013-12-05 17:42:00,
2013-12-05 13:22:00,29.0,20.0,29.88,NNE,15,17.0,30.0,68,-99.99,,,-99.99,,2013-12-05 18:22:00,
2013-12-05 13:42:00,29.0,19.0,29.88,NNE,25,13.0,25.0,67,-99.99,,,-99.99,,2013-12-05 18:42:00,
2013-12-05 14:20:00,28.0,19.0,29.88,North,10,12.0,27.0,68,-99.99,,,-99.99,,2013-12-05 19:20:00,
2013-12-05 14:52:00,29.0,19.0,29.88,NNE,25,10.0,22.0,67,-99.99,,,-99.99,,2013-12-05 19:52:00,
2013-12-05 15:11:00,28.0,19.0,29.88,North,10,12.0,27.0,68,-99.99,,,-99.99,,2013-12-05 20:11:00,
2013-12-05 16:22:00,28.0,18.0,29.88,NE,35,15.0,30.0,66,-99.99,,,-99.99,,2013-12-05 21:22:00,
2013-12-05 16:53:00,28.0,18.0,29.88,North,10,11.0,28.0,66,-99.99,,,-99.99,,2013-12-05 21:53:00,
2013-12-05 17:24:00,27.0,17.0,29.88,North,350,10.0,24.0,65,-99.99,,,-99.99,,2013-12-05 22:24:00,
2013-12-05 17:42:00,27.0,17.0,29.88,NNE,15,11.0,25.0,65,-99.99,,,-99.99,,2013-12-05 22:42:00,
2013-12-05 18:22:00,26.0,15.0,29.88,NNW,345,13.0,27.0,63,-99.99,,,-99.99,,2013-12-05 23:22:00,
2013-12-05 18:43:00,26.0,16.0,29.88,NNE,30,12.0,25.0,65,-99.99,,,-99.99,,2013-12-05 23:43:00,
2013-12-05 19:22:00,26.0,16.0,29.88,North,5,10.0,24.0,65,-99.99,,,-99.99,,2013-12-06 00:22:00,
2013-12-05 19:42:00,26.0,16.0,29.88,NNE,20,11.0,21.0,66,-99.99,,,-99.99,,2013-12-06 00:42:00,
2013-12-05 20:22:00,26.0,15.0,29.88,NNE,15,14.0,31.0,62,-99.99,,,-99.99,,2013-12-06 01:22:00,
2013-12-05 20:42:00,26.0,13.0,29.88,NE,35,10.0,25.0,58,-99.99,,,-99.99,,2013-12-06 01:42:00,
2013-12-05 21:22:00,25.0,13.0,29.88,NE,35,12.0,30.0,61,-99.99,,,-99.99,,2013-12-06 02:22:00,
2013-12-05 21:42:00,24.0,12.0,29.88,NNE,25,17.0,29.0,59,-99.99,,,-99.99,,2013-12-06 02:42:00,
2013-12-05 22:12:00,23.0,13.0,29.88,NE,45,18.0,31.0,65,-99.99,,,-99.99,,2013-12-06 03:12:00,
2013-12-05 22:22:00,24.0,13.0,29.88,NNE,30,10.0,29.0,64,-99.99,,,-99.99,,2013-12-06 03:22:00,